sensor_id;sensor_type;location;lat;lon;timestamp;temperature;humidity
52181;DHT22;38158;53.338;6.514;2024-02-21T00:01:42;9.00;99.90
52181;DHT22;38158;53.338;6.514;2024-02-21T00:04:08;9.00;99.90
52181;DHT22;38158;53.338;6.514;2024-02-21T00:06:33;9.70;99.90
52181;DHT22;38158;53.338;6.514;2024-02-21T00:08:59;9.00;99.90
52181;DHT22;38158;53.338;6.514;2024-02-21T00:11:24;8.90;99.90
52181;DHT22;38158;53.338;6.514;2024-02-21T00:13:50;8.90;99.90
52181;DHT22;38158;53.338;6.514;2024-02-21T00:16:16;8.90;99.90
52181;DHT22;38158;53.338;6.514;2024-02-21T00:18:43;8.90;99.90
52181;DHT22;38158;53.338;6.514;2024-02-21T00:21:08;8.80;99.90
52181;DHT22;38158;53.338;6.514;2024-02-21T00:23:34;8.80;99.90
52181;DHT22;38158;53.338;6.514;2024-02-21T00:26:00;8.80;99.90
52181;DHT22;38158;53.338;6.514;2024-02-21T00:28:26;8.80;99.90
52181;DHT22;38158;53.338;6.514;2024-02-21T00:30:51;8.90;99.90
52181;DHT22;38158;53.338;6.514;2024-02-21T00:33:18;8.70;99.90
52181;DHT22;38158;53.338;6.514;2024-02-21T00:35:44;8.70;99.90
52181;DHT22;38158;53.338;6.514;2024-02-21T00:38:10;8.60;99.90
52181;DHT22;38158;53.338;6.514;2024-02-21T00:40:36;8.60;99.90
52181;DHT22;38158;53.338;6.514;2024-02-21T00:43:02;8.60;99.90
52181;DHT22;38158;53.338;6.514;2024-02-21T00:45:28;8.60;99.90
52181;DHT22;38158;53.338;6.514;2024-02-21T00:47:54;8.60;99.90
52181;DHT22;38158;53.338;6.514;2024-02-21T00:50:19;8.60;99.90
52181;DHT22;38158;53.338;6.514;2024-02-21T00:52:45;8.60;99.90
52181;DHT22;38158;53.338;6.514;2024-02-21T00:55:11;8.60;99.90
52181;DHT22;38158;53.338;6.514;2024-02-21T00:57:36;8.60;99.90
52181;DHT22;38158;53.338;6.514;2024-02-21T01:00:03;8.60;99.90
52181;DHT22;38158;53.338;6.514;2024-02-21T01:02:29;8.60;99.90
52181;DHT22;38158;53.338;6.514;2024-02-21T01:04:57;8.60;99.90
52181;DHT22;38158;53.338;6.514;2024-02-21T01:07:23;8.60;99.90
52181;DHT22;38158;53.338;6.514;2024-02-21T01:09:49;8.60;99.90
52181;DHT22;38158;53.338;6.514;2024-02-21T01:12:16;8.60;99.90
52181;DHT22;38158;53.338;6.514;2024-02-21T01:14:42;8.60;99.90
52181;DHT22;38158;53.338;6.514;2024-02-21T01:17:08;8.60;99.90
52181;DHT22;38158;53.338;6.514;2024-02-21T01:19:34;8.60;99.90
52181;DHT22;38158;53.338;6.514;2024-02-21T01:21:59;10.20;99.90
52181;DHT22;38158;53.338;6.514;2024-02-21T01:24:25;8.60;99.90
52181;DHT22;38158;53.338;6.514;2024-02-21T01:26:51;8.60;99.90
52181;DHT22;38158;53.338;6.514;2024-02-21T01:29:19;8.60;99.90
52181;DHT22;38158;53.338;6.514;2024-02-21T01:31:45;8.60;99.90
52181;DHT22;38158;53.338;6.514;2024-02-21T01:34:11;8.50;99.90
52181;DHT22;38158;53.338;6.514;2024-02-21T01:36:37;8.50;99.90
52181;DHT22;38158;53.338;6.514;2024-02-21T01:39:04;8.60;99.90
52181;DHT22;38158;53.338;6.514;2024-02-21T01:41:30;8.70;99.90
52181;DHT22;38158;53.338;6.514;2024-02-21T01:43:57;8.50;99.90
52181;DHT22;38158;53.338;6.514;2024-02-21T01:46:24;8.40;99.90
52181;DHT22;38158;53.338;6.514;2024-02-21T01:48:55;8.40;99.90
52181;DHT22;38158;53.338;6.514;2024-02-21T01:51:21;8.50;99.90
52181;DHT22;38158;53.338;6.514;2024-02-21T01:53:47;8.50;99.90
52181;DHT22;38158;53.338;6.514;2024-02-21T01:56:13;8.50;99.90
52181;DHT22;38158;53.338;6.514;2024-02-21T01:58:40;8.40;99.90
52181;DHT22;38158;53.338;6.514;2024-02-21T02:01:07;8.40;99.90
52181;DHT22;38158;53.338;6.514;2024-02-21T02:03:34;8.40;99.90
52181;DHT22;38158;53.338;6.514;2024-02-21T02:06:00;8.40;99.90
52181;DHT22;38158;53.338;6.514;2024-02-21T02:08:26;8.40;99.90
52181;DHT22;38158;53.338;6.514;2024-02-21T02:10:52;8.40;99.90
52181;DHT22;38158;53.338;6.514;2024-02-21T02:13:17;8.40;99.90
52181;DHT22;38158;53.338;6.514;2024-02-21T02:15:48;8.50;99.90
52181;DHT22;38158;53.338;6.514;2024-02-21T02:18:14;8.50;99.90
52181;DHT22;38158;53.338;6.514;2024-02-21T02:20:40;8.50;99.90
52181;DHT22;38158;53.338;6.514;2024-02-21T02:23:21;8.40;99.90
52181;DHT22;38158;53.338;6.514;2024-02-21T02:25:47;8.50;99.90
52181;DHT22;38158;53.338;6.514;2024-02-21T02:28:14;8.40;99.90
52181;DHT22;38158;53.338;6.514;2024-02-21T02:30:40;8.50;99.90
52181;DHT22;38158;53.338;6.514;2024-02-21T02:33:06;8.70;99.90
52181;DHT22;38158;53.338;6.514;2024-02-21T02:35:32;8.50;99.90
52181;DHT22;38158;53.338;6.514;2024-02-21T02:38:00;8.40;99.90
52181;DHT22;38158;53.338;6.514;2024-02-21T02:40:26;8.50;99.90
52181;DHT22;38158;53.338;6.514;2024-02-21T02:42:52;8.50;99.90
52181;DHT22;38158;53.338;6.514;2024-02-21T02:45:20;8.50;99.90
52181;DHT22;38158;53.338;6.514;2024-02-21T02:47:46;6.90;99.90
52181;DHT22;38158;53.338;6.514;2024-02-21T02:50:13;8.50;99.90
52181;DHT22;38158;53.338;6.514;2024-02-21T02:52:39;8.40;99.90
52181;DHT22;38158;53.338;6.514;2024-02-21T02:55:05;8.40;99.90
52181;DHT22;38158;53.338;6.514;2024-02-21T02:57:31;8.40;99.90
52181;DHT22;38158;53.338;6.514;2024-02-21T02:59:57;8.40;99.90
52181;DHT22;38158;53.338;6.514;2024-02-21T03:02:23;8.40;99.90
52181;DHT22;38158;53.338;6.514;2024-02-21T03:04:49;8.60;99.90
52181;DHT22;38158;53.338;6.514;2024-02-21T03:07:15;8.50;99.90
52181;DHT22;38158;53.338;6.514;2024-02-21T03:09:42;8.40;99.90
52181;DHT22;38158;53.338;6.514;2024-02-21T03:12:10;8.40;99.90
52181;DHT22;38158;53.338;6.514;2024-02-21T03:14:37;8.40;99.90
52181;DHT22;38158;53.338;6.514;2024-02-21T03:17:03;8.40;99.90
52181;DHT22;38158;53.338;6.514;2024-02-21T03:19:29;8.40;99.90
52181;DHT22;38158;53.338;6.514;2024-02-21T03:21:55;8.40;99.90
52181;DHT22;38158;53.338;6.514;2024-02-21T03:24:21;8.40;99.90
52181;DHT22;38158;53.338;6.514;2024-02-21T03:26:47;8.40;99.90
52181;DHT22;38158;53.338;6.514;2024-02-21T03:29:15;8.40;99.90
52181;DHT22;38158;53.338;6.514;2024-02-21T03:31:41;8.50;99.90
52181;DHT22;38158;53.338;6.514;2024-02-21T03:34:07;8.40;99.90
52181;DHT22;38158;53.338;6.514;2024-02-21T03:36:33;8.40;99.90
52181;DHT22;38158;53.338;6.514;2024-02-21T03:38:59;8.40;99.90
52181;DHT22;38158;53.338;6.514;2024-02-21T03:41:24;8.40;99.90
52181;DHT22;38158;53.338;6.514;2024-02-21T03:43:50;8.40;99.90
52181;DHT22;38158;53.338;6.514;2024-02-21T03:46:15;8.40;99.90
52181;DHT22;38158;53.338;6.514;2024-02-21T03:48:41;8.40;99.90
52181;DHT22;38158;53.338;6.514;2024-02-21T03:51:08;8.40;99.90
52181;DHT22;38158;53.338;6.514;2024-02-21T03:53:33;8.40;99.90
52181;DHT22;38158;53.338;6.514;2024-02-21T03:56:03;8.40;99.90
52181;DHT22;38158;53.338;6.514;2024-02-21T03:58:30;8.40;99.90
52181;DHT22;38158;53.338;6.514;2024-02-21T04:00:56;8.40;99.90
52181;DHT22;38158;53.338;6.514;2024-02-21T04:03:21;8.40;99.90
52181;DHT22;38158;53.338;6.514;2024-02-21T04:05:47;8.40;99.90
52181;DHT22;38158;53.338;6.514;2024-02-21T04:08:14;8.40;99.90
52181;DHT22;38158;53.338;6.514;2024-02-21T04:10:39;8.40;99.90
52181;DHT22;38158;53.338;6.514;2024-02-21T04:13:06;8.40;99.90
52181;DHT22;38158;53.338;6.514;2024-02-21T04:15:32;8.40;99.90
52181;DHT22;38158;53.338;6.514;2024-02-21T04:17:58;8.40;99.90
52181;DHT22;38158;53.338;6.514;2024-02-21T04:20:23;8.40;99.90
52181;DHT22;38158;53.338;6.514;2024-02-21T04:22:49;8.60;99.90
52181;DHT22;38158;53.338;6.514;2024-02-21T04:25:15;8.50;99.90
52181;DHT22;38158;53.338;6.514;2024-02-21T04:27:41;8.40;99.90
52181;DHT22;38158;53.338;6.514;2024-02-21T04:30:07;8.40;99.90
52181;DHT22;38158;53.338;6.514;2024-02-21T04:32:33;8.40;99.90
52181;DHT22;38158;53.338;6.514;2024-02-21T04:35:00;8.40;99.90
52181;DHT22;38158;53.338;6.514;2024-02-21T04:37:26;8.40;99.90
52181;DHT22;38158;53.338;6.514;2024-02-21T04:39:51;8.40;99.90
52181;DHT22;38158;53.338;6.514;2024-02-21T04:42:17;8.40;99.90
52181;DHT22;38158;53.338;6.514;2024-02-21T04:44:43;8.40;99.90
52181;DHT22;38158;53.338;6.514;2024-02-21T04:47:09;8.60;99.90
52181;DHT22;38158;53.338;6.514;2024-02-21T04:49:35;8.40;99.90
52181;DHT22;38158;53.338;6.514;2024-02-21T04:52:01;8.40;99.90
52181;DHT22;38158;53.338;6.514;2024-02-21T04:54:26;8.40;99.90
52181;DHT22;38158;53.338;6.514;2024-02-21T04:56:52;8.40;99.90
52181;DHT22;38158;53.338;6.514;2024-02-21T04:59:18;8.40;99.90
52181;DHT22;38158;53.338;6.514;2024-02-21T05:01:44;8.40;99.90
52181;DHT22;38158;53.338;6.514;2024-02-21T05:04:10;8.40;99.90
52181;DHT22;38158;53.338;6.514;2024-02-21T05:06:39;8.40;99.90
52181;DHT22;38158;53.338;6.514;2024-02-21T05:09:06;8.40;99.90
52181;DHT22;38158;53.338;6.514;2024-02-21T05:11:31;8.40;99.90
52181;DHT22;38158;53.338;6.514;2024-02-21T05:13:57;8.40;99.90
52181;DHT22;38158;53.338;6.514;2024-02-21T05:16:23;8.40;99.90
52181;DHT22;38158;53.338;6.514;2024-02-21T05:18:48;8.70;99.90
52181;DHT22;38158;53.338;6.514;2024-02-21T05:21:14;8.40;99.90
52181;DHT22;38158;53.338;6.514;2024-02-21T05:23:40;8.40;99.90
52181;DHT22;38158;53.338;6.514;2024-02-21T05:26:06;8.30;99.90
52181;DHT22;38158;53.338;6.514;2024-02-21T05:28:32;8.30;99.90
52181;DHT22;38158;53.338;6.514;2024-02-21T05:30:57;8.50;99.90
52181;DHT22;38158;53.338;6.514;2024-02-21T05:33:24;8.60;99.90
52181;DHT22;38158;53.338;6.514;2024-02-21T05:35:50;8.30;99.90
52181;DHT22;38158;53.338;6.514;2024-02-21T05:38:16;8.40;99.90
52181;DHT22;38158;53.338;6.514;2024-02-21T05:40:42;8.30;99.90
52181;DHT22;38158;53.338;6.514;2024-02-21T05:43:09;8.30;99.90
52181;DHT22;38158;53.338;6.514;2024-02-21T05:45:35;8.40;99.90
52181;DHT22;38158;53.338;6.514;2024-02-21T05:48:02;8.40;99.90
52181;DHT22;38158;53.338;6.514;2024-02-21T05:50:28;8.30;99.90
52181;DHT22;38158;53.338;6.514;2024-02-21T05:52:54;8.30;99.90
52181;DHT22;38158;53.338;6.514;2024-02-21T05:55:21;8.30;99.90
52181;DHT22;38158;53.338;6.514;2024-02-21T05:57:46;8.30;99.90
52181;DHT22;38158;53.338;6.514;2024-02-21T06:00:13;8.30;99.90
52181;DHT22;38158;53.338;6.514;2024-02-21T06:02:39;8.30;99.90
52181;DHT22;38158;53.338;6.514;2024-02-21T06:05:06;8.30;99.90
52181;DHT22;38158;53.338;6.514;2024-02-21T06:07:33;8.30;99.90
52181;DHT22;38158;53.338;6.514;2024-02-21T06:10:00;8.30;99.90
52181;DHT22;38158;53.338;6.514;2024-02-21T06:12:25;8.30;99.90
52181;DHT22;38158;53.338;6.514;2024-02-21T06:14:52;8.30;99.90
52181;DHT22;38158;53.338;6.514;2024-02-21T06:17:17;8.30;99.90
52181;DHT22;38158;53.338;6.514;2024-02-21T06:19:44;8.30;99.90
52181;DHT22;38158;53.338;6.514;2024-02-21T06:22:10;8.30;99.90
52181;DHT22;38158;53.338;6.514;2024-02-21T06:24:36;8.40;99.90
52181;DHT22;38158;53.338;6.514;2024-02-21T06:27:04;8.30;99.90
52181;DHT22;38158;53.338;6.514;2024-02-21T06:29:31;8.40;99.90
52181;DHT22;38158;53.338;6.514;2024-02-21T06:31:57;8.30;99.90
52181;DHT22;38158;53.338;6.514;2024-02-21T06:34:23;8.30;99.90
52181;DHT22;38158;53.338;6.514;2024-02-21T06:36:50;8.30;99.90
52181;DHT22;38158;53.338;6.514;2024-02-21T06:39:16;8.40;99.90
52181;DHT22;38158;53.338;6.514;2024-02-21T06:41:42;8.40;99.90
52181;DHT22;38158;53.338;6.514;2024-02-21T06:44:08;8.30;99.90
52181;DHT22;38158;53.338;6.514;2024-02-21T06:46:33;8.30;99.90
52181;DHT22;38158;53.338;6.514;2024-02-21T06:49:00;8.30;99.90
52181;DHT22;38158;53.338;6.514;2024-02-21T06:51:26;8.30;99.90
52181;DHT22;38158;53.338;6.514;2024-02-21T06:53:52;8.30;99.90
52181;DHT22;38158;53.338;6.514;2024-02-21T06:56:18;8.30;99.90
52181;DHT22;38158;53.338;6.514;2024-02-21T06:58:43;8.30;99.90
52181;DHT22;38158;53.338;6.514;2024-02-21T07:01:10;8.30;99.90
52181;DHT22;38158;53.338;6.514;2024-02-21T07:03:36;8.30;99.90
52181;DHT22;38158;53.338;6.514;2024-02-21T07:06:02;8.30;99.90
52181;DHT22;38158;53.338;6.514;2024-02-21T07:08:27;8.30;99.90
52181;DHT22;38158;53.338;6.514;2024-02-21T07:10:53;8.50;99.90
52181;DHT22;38158;53.338;6.514;2024-02-21T07:13:19;8.30;99.90
52181;DHT22;38158;53.338;6.514;2024-02-21T07:15:46;8.30;99.90
52181;DHT22;38158;53.338;6.514;2024-02-21T07:18:11;8.30;99.90
52181;DHT22;38158;53.338;6.514;2024-02-21T07:20:37;8.40;99.90
52181;DHT22;38158;53.338;6.514;2024-02-21T07:23:03;8.30;99.90
52181;DHT22;38158;53.338;6.514;2024-02-21T07:25:29;8.30;99.90
52181;DHT22;38158;53.338;6.514;2024-02-21T07:27:56;8.30;99.90
52181;DHT22;38158;53.338;6.514;2024-02-21T07:30:21;8.30;99.90
52181;DHT22;38158;53.338;6.514;2024-02-21T07:32:50;8.30;99.90
52181;DHT22;38158;53.338;6.514;2024-02-21T07:35:17;8.30;99.90
52181;DHT22;38158;53.338;6.514;2024-02-21T07:37:43;8.30;99.90
52181;DHT22;38158;53.338;6.514;2024-02-21T07:40:16;8.40;99.90
52181;DHT22;38158;53.338;6.514;2024-02-21T07:42:43;8.40;99.90
52181;DHT22;38158;53.338;6.514;2024-02-21T07:45:10;8.40;99.90
52181;DHT22;38158;53.338;6.514;2024-02-21T07:47:36;8.40;99.90
52181;DHT22;38158;53.338;6.514;2024-02-21T07:50:03;8.40;99.90
52181;DHT22;38158;53.338;6.514;2024-02-21T07:52:29;8.40;99.90
52181;DHT22;38158;53.338;6.514;2024-02-21T07:54:55;8.40;99.90
52181;DHT22;38158;53.338;6.514;2024-02-21T07:57:20;8.40;99.90
52181;DHT22;38158;53.338;6.514;2024-02-21T07:59:47;8.40;99.90
52181;DHT22;38158;53.338;6.514;2024-02-21T08:02:16;8.40;99.90
52181;DHT22;38158;53.338;6.514;2024-02-21T08:04:42;8.40;99.90
52181;DHT22;38158;53.338;6.514;2024-02-21T08:07:09;8.40;99.90
52181;DHT22;38158;53.338;6.514;2024-02-21T08:09:35;8.40;99.90
52181;DHT22;38158;53.338;6.514;2024-02-21T08:12:02;8.40;99.90
52181;DHT22;38158;53.338;6.514;2024-02-21T08:14:27;8.40;99.90
52181;DHT22;38158;53.338;6.514;2024-02-21T08:16:53;8.50;99.90
52181;DHT22;38158;53.338;6.514;2024-02-21T08:19:20;8.50;99.90
52181;DHT22;38158;53.338;6.514;2024-02-21T08:21:46;8.50;99.90
52181;DHT22;38158;53.338;6.514;2024-02-21T08:24:13;8.60;99.90
52181;DHT22;38158;53.338;6.514;2024-02-21T08:26:43;8.50;99.90
52181;DHT22;38158;53.338;6.514;2024-02-21T08:29:11;8.50;99.90
52181;DHT22;38158;53.338;6.514;2024-02-21T08:31:37;8.50;99.90
52181;DHT22;38158;53.338;6.514;2024-02-21T08:34:03;8.50;99.90
52181;DHT22;38158;53.338;6.514;2024-02-21T08:36:34;8.50;99.90
52181;DHT22;38158;53.338;6.514;2024-02-21T08:39:00;8.50;99.90
52181;DHT22;38158;53.338;6.514;2024-02-21T08:41:27;8.60;99.90
52181;DHT22;38158;53.338;6.514;2024-02-21T08:43:53;8.70;99.90
52181;DHT22;38158;53.338;6.514;2024-02-21T08:46:22;8.50;99.90
52181;DHT22;38158;53.338;6.514;2024-02-21T08:48:53;8.50;99.90
52181;DHT22;38158;53.338;6.514;2024-02-21T08:51:20;8.50;99.90
52181;DHT22;38158;53.338;6.514;2024-02-21T08:53:46;8.50;99.90
52181;DHT22;38158;53.338;6.514;2024-02-21T08:56:12;8.50;99.90
52181;DHT22;38158;53.338;6.514;2024-02-21T08:58:39;8.50;99.90
52181;DHT22;38158;53.338;6.514;2024-02-21T09:01:06;8.50;99.90
52181;DHT22;38158;53.338;6.514;2024-02-21T09:03:38;8.50;99.90
52181;DHT22;38158;53.338;6.514;2024-02-21T09:06:07;8.50;99.90
52181;DHT22;38158;53.338;6.514;2024-02-21T09:08:33;8.50;99.90
52181;DHT22;38158;53.338;6.514;2024-02-21T09:11:02;8.50;99.90
52181;DHT22;38158;53.338;6.514;2024-02-21T09:13:28;8.50;99.90
52181;DHT22;38158;53.338;6.514;2024-02-21T09:15:54;8.70;99.90
52181;DHT22;38158;53.338;6.514;2024-02-21T09:18:20;8.50;99.90
52181;DHT22;38158;53.338;6.514;2024-02-21T09:20:45;8.50;99.90
52181;DHT22;38158;53.338;6.514;2024-02-21T09:23:12;8.50;99.90
52181;DHT22;38158;53.338;6.514;2024-02-21T09:25:39;8.60;99.90
52181;DHT22;38158;53.338;6.514;2024-02-21T09:28:05;8.80;99.90
52181;DHT22;38158;53.338;6.514;2024-02-21T09:30:32;8.60;99.90
52181;DHT22;38158;53.338;6.514;2024-02-21T09:32:57;8.60;99.90
52181;DHT22;38158;53.338;6.514;2024-02-21T09:35:25;8.60;99.90
52181;DHT22;38158;53.338;6.514;2024-02-21T09:37:53;8.60;99.90
52181;DHT22;38158;53.338;6.514;2024-02-21T09:40:19;8.60;99.90
52181;DHT22;38158;53.338;6.514;2024-02-21T09:42:47;8.60;99.90
52181;DHT22;38158;53.338;6.514;2024-02-21T09:45:21;8.60;99.90
52181;DHT22;38158;53.338;6.514;2024-02-21T09:50:19;8.60;99.90
52181;DHT22;38158;53.338;6.514;2024-02-21T09:52:48;8.70;99.90
52181;DHT22;38158;53.338;6.514;2024-02-21T09:55:15;8.70;99.90
52181;DHT22;38158;53.338;6.514;2024-02-21T09:57:41;8.70;99.90
52181;DHT22;38158;53.338;6.514;2024-02-21T10:00:09;8.70;99.90
52181;DHT22;38158;53.338;6.514;2024-02-21T10:02:35;8.70;99.90
52181;DHT22;38158;53.338;6.514;2024-02-21T10:05:02;8.70;99.90
52181;DHT22;38158;53.338;6.514;2024-02-21T10:07:32;8.80;99.90
52181;DHT22;38158;53.338;6.514;2024-02-21T10:10:02;8.80;99.90
52181;DHT22;38158;53.338;6.514;2024-02-21T10:12:28;8.80;99.90
52181;DHT22;38158;53.338;6.514;2024-02-21T10:15:03;8.80;99.90
52181;DHT22;38158;53.338;6.514;2024-02-21T10:17:29;8.80;99.90
52181;DHT22;38158;53.338;6.514;2024-02-21T10:19:55;8.80;99.90
52181;DHT22;38158;53.338;6.514;2024-02-21T10:22:20;8.80;99.90
52181;DHT22;38158;53.338;6.514;2024-02-21T10:24:46;8.80;99.90
52181;DHT22;38158;53.338;6.514;2024-02-21T10:27:12;8.80;99.90
52181;DHT22;38158;53.338;6.514;2024-02-21T10:29:39;8.80;99.90
52181;DHT22;38158;53.338;6.514;2024-02-21T10:32:06;8.90;99.90
52181;DHT22;38158;53.338;6.514;2024-02-21T10:34:33;8.90;99.90
52181;DHT22;38158;53.338;6.514;2024-02-21T10:37:09;8.90;99.90
52181;DHT22;38158;53.338;6.514;2024-02-21T10:39:38;8.90;99.90
52181;DHT22;38158;53.338;6.514;2024-02-21T10:42:04;8.90;99.90
52181;DHT22;38158;53.338;6.514;2024-02-21T10:44:38;8.90;99.90
52181;DHT22;38158;53.338;6.514;2024-02-21T10:47:09;8.90;99.90
52181;DHT22;38158;53.338;6.514;2024-02-21T10:49:39;8.90;99.90
52181;DHT22;38158;53.338;6.514;2024-02-21T10:54:47;8.90;99.90
52181;DHT22;38158;53.338;6.514;2024-02-21T10:57:16;8.90;99.90
52181;DHT22;38158;53.338;6.514;2024-02-21T10:59:44;9.00;99.90
52181;DHT22;38158;53.338;6.514;2024-02-21T11:02:10;9.10;99.90
52181;DHT22;38158;53.338;6.514;2024-02-21T11:04:36;9.00;99.90
52181;DHT22;38158;53.338;6.514;2024-02-21T11:07:04;9.00;99.90
52181;DHT22;38158;53.338;6.514;2024-02-21T11:09:32;9.10;99.90
52181;DHT22;38158;53.338;6.514;2024-02-21T11:12:01;9.20;99.90
52181;DHT22;38158;53.338;6.514;2024-02-21T11:14:28;9.20;99.90
52181;DHT22;38158;53.338;6.514;2024-02-21T11:16:54;9.30;99.90
52181;DHT22;38158;53.338;6.514;2024-02-21T11:19:29;9.30;99.90
52181;DHT22;38158;53.338;6.514;2024-02-21T11:21:57;7.80;99.90
52181;DHT22;38158;53.338;6.514;2024-02-21T11:27:21;9.40;99.90
52181;DHT22;38158;53.338;6.514;2024-02-21T11:29:48;9.40;99.90
52181;DHT22;38158;53.338;6.514;2024-02-21T11:32:18;9.40;99.90
52181;DHT22;38158;53.338;6.514;2024-02-21T11:35:01;9.40;99.90
52181;DHT22;38158;53.338;6.514;2024-02-21T11:37:29;9.40;99.90
52181;DHT22;38158;53.338;6.514;2024-02-21T11:39:56;9.40;99.90
52181;DHT22;38158;53.338;6.514;2024-02-21T11:42:21;9.40;99.90
52181;DHT22;38158;53.338;6.514;2024-02-21T11:44:48;9.40;99.90
52181;DHT22;38158;53.338;6.514;2024-02-21T11:47:15;9.60;99.90
52181;DHT22;38158;53.338;6.514;2024-02-21T11:49:47;9.30;99.90
52181;DHT22;38158;53.338;6.514;2024-02-21T11:52:15;9.30;99.90
52181;DHT22;38158;53.338;6.514;2024-02-21T11:54:41;9.30;99.90
52181;DHT22;38158;53.338;6.514;2024-02-21T11:57:07;9.30;99.90
52181;DHT22;38158;53.338;6.514;2024-02-21T11:59:33;9.40;99.90
52181;DHT22;38158;53.338;6.514;2024-02-21T12:02:03;9.30;99.90
52181;DHT22;38158;53.338;6.514;2024-02-21T12:04:29;9.20;99.90
52181;DHT22;38158;53.338;6.514;2024-02-21T12:06:57;9.30;99.90
52181;DHT22;38158;53.338;6.514;2024-02-21T12:09:24;9.30;99.90
52181;DHT22;38158;53.338;6.514;2024-02-21T12:12:04;9.30;99.90
52181;DHT22;38158;53.338;6.514;2024-02-21T12:14:34;9.30;99.90
52181;DHT22;38158;53.338;6.514;2024-02-21T12:17:01;9.30;99.90
52181;DHT22;38158;53.338;6.514;2024-02-21T12:19:30;9.30;99.90
52181;DHT22;38158;53.338;6.514;2024-02-21T12:21:58;9.60;99.90
52181;DHT22;38158;53.338;6.514;2024-02-21T12:24:24;9.40;99.90
52181;DHT22;38158;53.338;6.514;2024-02-21T12:26:51;9.40;99.90
52181;DHT22;38158;53.338;6.514;2024-02-21T12:29:18;9.40;99.90
52181;DHT22;38158;53.338;6.514;2024-02-21T12:31:44;9.30;99.90
52181;DHT22;38158;53.338;6.514;2024-02-21T12:34:10;9.40;99.90
52181;DHT22;38158;53.338;6.514;2024-02-21T12:36:43;9.30;99.90
52181;DHT22;38158;53.338;6.514;2024-02-21T12:39:12;9.30;99.90
52181;DHT22;38158;53.338;6.514;2024-02-21T12:41:39;9.30;99.90
52181;DHT22;38158;53.338;6.514;2024-02-21T12:44:06;9.60;99.90
52181;DHT22;38158;53.338;6.514;2024-02-21T12:46:35;9.30;99.90
52181;DHT22;38158;53.338;6.514;2024-02-21T12:49:02;9.40;99.90
52181;DHT22;38158;53.338;6.514;2024-02-21T12:51:28;9.40;99.90
52181;DHT22;38158;53.338;6.514;2024-02-21T12:53:55;9.40;99.90
52181;DHT22;38158;53.338;6.514;2024-02-21T12:56:21;9.40;99.90
52181;DHT22;38158;53.338;6.514;2024-02-21T12:58:46;9.60;99.90
52181;DHT22;38158;53.338;6.514;2024-02-21T13:01:12;9.50;99.90
52181;DHT22;38158;53.338;6.514;2024-02-21T13:03:38;9.50;99.90
52181;DHT22;38158;53.338;6.514;2024-02-21T13:06:05;9.50;99.90
52181;DHT22;38158;53.338;6.514;2024-02-21T13:08:30;9.50;99.90
52181;DHT22;38158;53.338;6.514;2024-02-21T13:10:56;9.50;99.90
52181;DHT22;38158;53.338;6.514;2024-02-21T13:13:22;9.40;99.90
52181;DHT22;38158;53.338;6.514;2024-02-21T13:15:48;9.40;99.90
52181;DHT22;38158;53.338;6.514;2024-02-21T13:18:13;9.50;99.90
52181;DHT22;38158;53.338;6.514;2024-02-21T13:20:39;9.40;99.90
52181;DHT22;38158;53.338;6.514;2024-02-21T13:23:05;9.50;99.90
52181;DHT22;38158;53.338;6.514;2024-02-21T13:25:31;9.50;99.90
52181;DHT22;38158;53.338;6.514;2024-02-21T13:27:56;9.50;99.90
52181;DHT22;38158;53.338;6.514;2024-02-21T13:30:22;9.80;99.90
52181;DHT22;38158;53.338;6.514;2024-02-21T13:32:48;9.60;99.90
52181;DHT22;38158;53.338;6.514;2024-02-21T13:35:17;9.90;99.90
52181;DHT22;38158;53.338;6.514;2024-02-21T13:37:43;9.70;99.90
52181;DHT22;38158;53.338;6.514;2024-02-21T13:40:09;9.60;99.90
52181;DHT22;38158;53.338;6.514;2024-02-21T13:42:36;9.60;99.90
52181;DHT22;38158;53.338;6.514;2024-02-21T13:45:03;9.60;99.90
52181;DHT22;38158;53.338;6.514;2024-02-21T13:47:35;9.70;99.90
52181;DHT22;38158;53.338;6.514;2024-02-21T13:50:07;9.60;99.90
52181;DHT22;38158;53.338;6.514;2024-02-21T13:52:40;9.60;99.90
52181;DHT22;38158;53.338;6.514;2024-02-21T13:55:06;9.70;99.90
52181;DHT22;38158;53.338;6.514;2024-02-21T13:57:36;9.60;99.90
52181;DHT22;38158;53.338;6.514;2024-02-21T14:00:03;9.60;99.90
52181;DHT22;38158;53.338;6.514;2024-02-21T14:02:28;9.60;99.90
52181;DHT22;38158;53.338;6.514;2024-02-21T14:04:54;9.50;99.90
52181;DHT22;38158;53.338;6.514;2024-02-21T14:07:20;9.70;99.90
52181;DHT22;38158;53.338;6.514;2024-02-21T14:09:46;9.50;99.90
52181;DHT22;38158;53.338;6.514;2024-02-21T14:12:11;9.50;99.90
52181;DHT22;38158;53.338;6.514;2024-02-21T14:14:37;9.50;99.90
52181;DHT22;38158;53.338;6.514;2024-02-21T14:17:03;9.40;99.90
52181;DHT22;38158;53.338;6.514;2024-02-21T14:19:30;9.40;99.90
52181;DHT22;38158;53.338;6.514;2024-02-21T14:21:56;9.40;99.90
52181;DHT22;38158;53.338;6.514;2024-02-21T14:24:23;9.40;99.90
52181;DHT22;38158;53.338;6.514;2024-02-21T14:26:48;9.40;99.90
52181;DHT22;38158;53.338;6.514;2024-02-21T14:29:14;9.40;99.90
52181;DHT22;38158;53.338;6.514;2024-02-21T14:31:40;9.40;99.90
52181;DHT22;38158;53.338;6.514;2024-02-21T14:34:05;9.40;99.90
52181;DHT22;38158;53.338;6.514;2024-02-21T14:36:33;9.40;99.90
52181;DHT22;38158;53.338;6.514;2024-02-21T14:38:59;9.40;99.90
52181;DHT22;38158;53.338;6.514;2024-02-21T14:41:25;9.30;99.90
52181;DHT22;38158;53.338;6.514;2024-02-21T14:43:50;9.50;99.90
52181;DHT22;38158;53.338;6.514;2024-02-21T14:46:17;9.30;99.90
52181;DHT22;38158;53.338;6.514;2024-02-21T14:48:43;9.30;99.90
52181;DHT22;38158;53.338;6.514;2024-02-21T14:51:08;9.30;99.90
52181;DHT22;38158;53.338;6.514;2024-02-21T14:53:34;9.30;99.90
52181;DHT22;38158;53.338;6.514;2024-02-21T14:55:59;9.20;99.90
52181;DHT22;38158;53.338;6.514;2024-02-21T14:58:25;9.20;99.90
52181;DHT22;38158;53.338;6.514;2024-02-21T15:00:51;9.20;99.90
52181;DHT22;38158;53.338;6.514;2024-02-21T15:03:17;9.10;99.90
52181;DHT22;38158;53.338;6.514;2024-02-21T15:05:46;9.10;99.90
52181;DHT22;38158;53.338;6.514;2024-02-21T15:08:12;9.10;99.90
52181;DHT22;38158;53.338;6.514;2024-02-21T15:10:42;9.10;99.90
52181;DHT22;38158;53.338;6.514;2024-02-21T15:13:07;9.10;99.90
52181;DHT22;38158;53.338;6.514;2024-02-21T15:15:33;9.00;99.90
52181;DHT22;38158;53.338;6.514;2024-02-21T15:17:59;9.10;99.90
52181;DHT22;38158;53.338;6.514;2024-02-21T15:20:27;9.10;99.90
52181;DHT22;38158;53.338;6.514;2024-02-21T15:22:53;9.00;99.90
52181;DHT22;38158;53.338;6.514;2024-02-21T15:25:19;9.00;99.90
52181;DHT22;38158;53.338;6.514;2024-02-21T15:27:45;9.00;99.90
52181;DHT22;38158;53.338;6.514;2024-02-21T15:30:12;9.00;99.90
52181;DHT22;38158;53.338;6.514;2024-02-21T15:32:38;9.00;99.90
52181;DHT22;38158;53.338;6.514;2024-02-21T15:35:05;9.00;99.90
52181;DHT22;38158;53.338;6.514;2024-02-21T15:37:33;9.00;99.90
52181;DHT22;38158;53.338;6.514;2024-02-21T15:39:59;8.90;99.90
52181;DHT22;38158;53.338;6.514;2024-02-21T15:42:26;8.90;99.90
52181;DHT22;38158;53.338;6.514;2024-02-21T15:44:55;8.90;99.90
52181;DHT22;38158;53.338;6.514;2024-02-21T15:47:21;8.90;99.90
52181;DHT22;38158;53.338;6.514;2024-02-21T15:49:49;8.90;99.90